sensor_id;sensor_type;location;lat;lon;timestamp;P1;durP1;ratioP1;P2;durP2;ratioP2
76848;SDS011;65814;51.134;16.980;2023-08-31T00:01:54;8.80;;;5.10;;
76848;SDS011;65814;51.134;16.980;2023-08-31T00:04:22;8.60;;;5.90;;
76848;SDS011;65814;51.134;16.980;2023-08-31T00:06:50;7.30;;;5.00;;
76848;SDS011;65814;51.134;16.980;2023-08-31T00:09:18;8.30;;;6.50;;
76848;SDS011;65814;51.134;16.980;2023-08-31T00:11:46;6.50;;;5.30;;
76848;SDS011;65814;51.134;16.980;2023-08-31T00:14:14;7.60;;;5.30;;
76848;SDS011;65814;51.134;16.980;2023-08-31T00:16:42;6.70;;;5.40;;
76848;SDS011;65814;51.134;16.980;2023-08-31T00:19:13;8.50;;;5.90;;
76848;SDS011;65814;51.134;16.980;2023-08-31T00:21:42;8.70;;;6.20;;
76848;SDS011;65814;51.134;16.980;2023-08-31T00:24:10;9.70;;;6.60;;
76848;SDS011;65814;51.134;16.980;2023-08-31T00:26:38;7.40;;;5.60;;
76848;SDS011;65814;51.134;16.980;2023-08-31T00:29:10;8.90;;;5.50;;
76848;SDS011;65814;51.134;16.980;2023-08-31T00:31:43;6.90;;;5.30;;
76848;SDS011;65814;51.134;16.980;2023-08-31T00:34:12;7.10;;;5.40;;
76848;SDS011;65814;51.134;16.980;2023-08-31T00:36:42;8.50;;;5.90;;
76848;SDS011;65814;51.134;16.980;2023-08-31T00:39:11;11.10;;;5.80;;
76848;SDS011;65814;51.134;16.980;2023-08-31T00:41:39;9.20;;;5.60;;
76848;SDS011;65814;51.134;16.980;2023-08-31T00:44:09;9.20;;;5.60;;
76848;SDS011;65814;51.134;16.980;2023-08-31T00:46:37;8.70;;;6.50;;
76848;SDS011;65814;51.134;16.980;2023-08-31T00:49:07;6.90;;;4.40;;
76848;SDS011;65814;51.134;16.980;2023-08-31T00:51:36;8.50;;;5.30;;
76848;SDS011;65814;51.134;16.980;2023-08-31T00:54:04;9.40;;;5.90;;
76848;SDS011;65814;51.134;16.980;2023-08-31T00:56:33;8.60;;;5.50;;
76848;SDS011;65814;51.134;16.980;2023-08-31T00:59:01;8.60;;;5.50;;
76848;SDS011;65814;51.134;16.980;2023-08-31T01:04:16;7.00;;;5.00;;
76848;SDS011;65814;51.134;16.980;2023-08-31T01:06:51;9.30;;;5.60;;
76848;SDS011;65814;51.134;16.980;2023-08-31T01:09:31;7.30;;;4.70;;
76848;SDS011;65814;51.134;16.980;2023-08-31T01:12:12;7.80;;;5.30;;
76848;SDS011;65814;51.134;16.980;2023-08-31T01:14:45;6.90;;;6.00;;
76848;SDS011;65814;51.134;16.980;2023-08-31T01:17:28;8.30;;;5.40;;
76848;SDS011;65814;51.134;16.980;2023-08-31T01:19:58;7.00;;;5.10;;
76848;SDS011;65814;51.134;16.980;2023-08-31T01:22:38;8.50;;;4.70;;
76848;SDS011;65814;51.134;16.980;2023-08-31T01:25:08;9.70;;;5.30;;
76848;SDS011;65814;51.134;16.980;2023-08-31T01:27:37;8.50;;;5.80;;
76848;SDS011;65814;51.134;16.980;2023-08-31T01:30:06;6.60;;;4.80;;
76848;SDS011;65814;51.134;16.980;2023-08-31T01:32:34;6.80;;;5.00;;
76848;SDS011;65814;51.134;16.980;2023-08-31T01:35:02;7.50;;;5.10;;
76848;SDS011;65814;51.134;16.980;2023-08-31T01:37:37;5.80;;;4.70;;
76848;SDS011;65814;51.134;16.980;2023-08-31T01:40:13;8.00;;;5.20;;
76848;SDS011;65814;51.134;16.980;2023-08-31T01:42:46;9.40;;;5.10;;
76848;SDS011;65814;51.134;16.980;2023-08-31T01:45:21;8.40;;;5.00;;
76848;SDS011;65814;51.134;16.980;2023-08-31T01:47:50;6.90;;;4.80;;
76848;SDS011;65814;51.134;16.980;2023-08-31T01:50:18;6.70;;;4.50;;
76848;SDS011;65814;51.134;16.980;2023-08-31T01:52:48;6.40;;;5.40;;
76848;SDS011;65814;51.134;16.980;2023-08-31T01:55:16;6.40;;;4.90;;
76848;SDS011;65814;51.134;16.980;2023-08-31T01:57:47;10.70;;;5.50;;
76848;SDS011;65814;51.134;16.980;2023-08-31T02:00:16;5.40;;;4.20;;
76848;SDS011;65814;51.134;16.980;2023-08-31T02:02:49;5.70;;;3.90;;
76848;SDS011;65814;51.134;16.980;2023-08-31T02:05:17;6.50;;;4.90;;
76848;SDS011;65814;51.134;16.980;2023-08-31T02:07:45;7.10;;;5.10;;
76848;SDS011;65814;51.134;16.980;2023-08-31T02:10:13;6.50;;;5.20;;
76848;SDS011;65814;51.134;16.980;2023-08-31T02:12:41;5.90;;;4.50;;
76848;SDS011;65814;51.134;16.980;2023-08-31T02:15:09;6.20;;;4.90;;
76848;SDS011;65814;51.134;16.980;2023-08-31T02:17:37;8.40;;;5.60;;
76848;SDS011;65814;51.134;16.980;2023-08-31T02:20:05;7.60;;;5.00;;
76848;SDS011;65814;51.134;16.980;2023-08-31T02:22:35;8.30;;;5.90;;
76848;SDS011;65814;51.134;16.980;2023-08-31T02:25:03;6.90;;;4.90;;
76848;SDS011;65814;51.134;16.980;2023-08-31T02:27:31;7.40;;;5.30;;
76848;SDS011;65814;51.134;16.980;2023-08-31T02:29:59;10.10;;;5.00;;
76848;SDS011;65814;51.134;16.980;2023-08-31T02:32:32;7.10;;;5.40;;
76848;SDS011;65814;51.134;16.980;2023-08-31T02:35:01;8.20;;;5.20;;
76848;SDS011;65814;51.134;16.980;2023-08-31T02:37:29;7.00;;;5.30;;
76848;SDS011;65814;51.134;16.980;2023-08-31T02:39:57;8.10;;;5.20;;
76848;SDS011;65814;51.134;16.980;2023-08-31T02:42:25;6.80;;;5.20;;
76848;SDS011;65814;51.134;16.980;2023-08-31T02:44:53;5.20;;;4.60;;
76848;SDS011;65814;51.134;16.980;2023-08-31T02:47:21;5.90;;;4.90;;
76848;SDS011;65814;51.134;16.980;2023-08-31T02:49:49;5.80;;;5.10;;
76848;SDS011;65814;51.134;16.980;2023-08-31T02:52:17;6.50;;;4.80;;
76848;SDS011;65814;51.134;16.980;2023-08-31T02:54:45;6.10;;;4.90;;
76848;SDS011;65814;51.134;16.980;2023-08-31T02:57:13;7.20;;;4.30;;
76848;SDS011;65814;51.134;16.980;2023-08-31T02:59:42;6.20;;;4.80;;
76848;SDS011;65814;51.134;16.980;2023-08-31T03:02:10;6.60;;;5.30;;
76848;SDS011;65814;51.134;16.980;2023-08-31T03:04:38;7.10;;;5.00;;
76848;SDS011;65814;51.134;16.980;2023-08-31T03:07:07;7.70;;;5.40;;
76848;SDS011;65814;51.134;16.980;2023-08-31T03:09:35;7.90;;;6.80;;
76848;SDS011;65814;51.134;16.980;2023-08-31T03:12:06;9.20;;;6.60;;
76848;SDS011;65814;51.134;16.980;2023-08-31T03:14:34;9.20;;;7.30;;
76848;SDS011;65814;51.134;16.980;2023-08-31T03:17:01;9.00;;;6.90;;
76848;SDS011;65814;51.134;16.980;2023-08-31T03:19:30;7.40;;;5.80;;
76848;SDS011;65814;51.134;16.980;2023-08-31T03:21:58;8.20;;;6.20;;
76848;SDS011;65814;51.134;16.980;2023-08-31T03:24:26;8.00;;;5.80;;
76848;SDS011;65814;51.134;16.980;2023-08-31T03:26:54;7.10;;;5.60;;
76848;SDS011;65814;51.134;16.980;2023-08-31T03:29:22;6.30;;;4.80;;
76848;SDS011;65814;51.134;16.980;2023-08-31T03:31:50;6.00;;;5.40;;
76848;SDS011;65814;51.134;16.980;2023-08-31T03:34:18;7.70;;;6.10;;
76848;SDS011;65814;51.134;16.980;2023-08-31T03:36:46;7.00;;;5.70;;
76848;SDS011;65814;51.134;16.980;2023-08-31T03:39:14;7.00;;;5.60;;
76848;SDS011;65814;51.134;16.980;2023-08-31T03:41:41;8.40;;;6.70;;
76848;SDS011;65814;51.134;16.980;2023-08-31T03:44:09;7.10;;;5.40;;
76848;SDS011;65814;51.134;16.980;2023-08-31T03:46:37;9.40;;;7.00;;
76848;SDS011;65814;51.134;16.980;2023-08-31T03:49:05;7.10;;;5.80;;
76848;SDS011;65814;51.134;16.980;2023-08-31T03:51:33;7.30;;;5.50;;
76848;SDS011;65814;51.134;16.980;2023-08-31T03:54:01;8.00;;;6.20;;
76848;SDS011;65814;51.134;16.980;2023-08-31T03:56:30;7.20;;;6.30;;
76848;SDS011;65814;51.134;16.980;2023-08-31T03:59:00;7.70;;;5.40;;
76848;SDS011;65814;51.134;16.980;2023-08-31T04:01:31;7.70;;;5.00;;
76848;SDS011;65814;51.134;16.980;2023-08-31T04:03:59;8.50;;;6.00;;
76848;SDS011;65814;51.134;16.980;2023-08-31T04:06:27;9.60;;;5.80;;
76848;SDS011;65814;51.134;16.980;2023-08-31T04:08:56;9.70;;;6.80;;
76848;SDS011;65814;51.134;16.980;2023-08-31T04:11:24;7.90;;;6.30;;
76848;SDS011;65814;51.134;16.980;2023-08-31T04:13:55;8.50;;;5.70;;
76848;SDS011;65814;51.134;16.980;2023-08-31T04:16:23;8.60;;;5.50;;
76848;SDS011;65814;51.134;16.980;2023-08-31T04:18:51;8.90;;;5.90;;
76848;SDS011;65814;51.134;16.980;2023-08-31T04:21:19;12.10;;;6.40;;
76848;SDS011;65814;51.134;16.980;2023-08-31T04:23:48;8.10;;;5.60;;
76848;SDS011;65814;51.134;16.980;2023-08-31T04:26:15;7.30;;;5.80;;
76848;SDS011;65814;51.134;16.980;2023-08-31T04:28:45;8.50;;;5.60;;
76848;SDS011;65814;51.134;16.980;2023-08-31T04:31:12;7.40;;;5.70;;
76848;SDS011;65814;51.134;16.980;2023-08-31T04:33:40;9.30;;;7.00;;
76848;SDS011;65814;51.134;16.980;2023-08-31T04:36:08;7.20;;;6.30;;
76848;SDS011;65814;51.134;16.980;2023-08-31T04:38:37;7.70;;;5.40;;
76848;SDS011;65814;51.134;16.980;2023-08-31T04:41:05;8.00;;;6.30;;
76848;SDS011;65814;51.134;16.980;2023-08-31T04:43:33;11.00;;;5.90;;
76848;SDS011;65814;51.134;16.980;2023-08-31T04:46:01;9.10;;;7.70;;
76848;SDS011;65814;51.134;16.980;2023-08-31T04:48:31;9.50;;;6.40;;
76848;SDS011;65814;51.134;16.980;2023-08-31T04:51:00;8.00;;;6.30;;
76848;SDS011;65814;51.134;16.980;2023-08-31T04:53:28;9.90;;;6.20;;
76848;SDS011;65814;51.134;16.980;2023-08-31T04:55:56;8.10;;;6.30;;
76848;SDS011;65814;51.134;16.980;2023-08-31T04:58:23;9.30;;;6.40;;
76848;SDS011;65814;51.134;16.980;2023-08-31T05:00:52;8.60;;;6.40;;
76848;SDS011;65814;51.134;16.980;2023-08-31T05:03:20;9.90;;;6.30;;
76848;SDS011;65814;51.134;16.980;2023-08-31T05:05:48;10.80;;;7.00;;
76848;SDS011;65814;51.134;16.980;2023-08-31T05:08:16;9.50;;;6.40;;
76848;SDS011;65814;51.134;16.980;2023-08-31T05:10:44;13.10;;;6.80;;
76848;SDS011;65814;51.134;16.980;2023-08-31T05:13:12;11.50;;;7.00;;
76848;SDS011;65814;51.134;16.980;2023-08-31T05:15:42;8.90;;;6.80;;
76848;SDS011;65814;51.134;16.980;2023-08-31T05:18:10;7.70;;;6.70;;
76848;SDS011;65814;51.134;16.980;2023-08-31T05:20:38;8.10;;;6.20;;
76848;SDS011;65814;51.134;16.980;2023-08-31T05:23:06;7.30;;;5.90;;
76848;SDS011;65814;51.134;16.980;2023-08-31T05:25:34;9.10;;;7.80;;
76848;SDS011;65814;51.134;16.980;2023-08-31T05:28:01;10.30;;;7.60;;
76848;SDS011;65814;51.134;16.980;2023-08-31T05:30:30;10.40;;;6.80;;
76848;SDS011;65814;51.134;16.980;2023-08-31T05:32:58;8.30;;;7.10;;
76848;SDS011;65814;51.134;16.980;2023-08-31T05:35:26;7.90;;;6.80;;
76848;SDS011;65814;51.134;16.980;2023-08-31T05:37:54;9.40;;;7.70;;
76848;SDS011;65814;51.134;16.980;2023-08-31T05:40:22;7.20;;;6.10;;
76848;SDS011;65814;51.134;16.980;2023-08-31T05:42:50;7.70;;;6.80;;
76848;SDS011;65814;51.134;16.980;2023-08-31T05:45:18;7.90;;;6.50;;
76848;SDS011;65814;51.134;16.980;2023-08-31T05:47:46;8.00;;;7.00;;
76848;SDS011;65814;51.134;16.980;2023-08-31T05:50:14;10.80;;;7.10;;
76848;SDS011;65814;51.134;16.980;2023-08-31T05:52:42;9.20;;;6.70;;
76848;SDS011;65814;51.134;16.980;2023-08-31T05:55:11;8.40;;;6.70;;
76848;SDS011;65814;51.134;16.980;2023-08-31T05:57:39;10.10;;;6.70;;
76848;SDS011;65814;51.134;16.980;2023-08-31T06:00:07;11.60;;;6.80;;
76848;SDS011;65814;51.134;16.980;2023-08-31T06:02:36;12.50;;;7.40;;
76848;SDS011;65814;51.134;16.980;2023-08-31T06:05:04;10.10;;;8.40;;
76848;SDS011;65814;51.134;16.980;2023-08-31T06:07:33;11.40;;;8.00;;
76848;SDS011;65814;51.134;16.980;2023-08-31T06:10:01;9.90;;;7.20;;
76848;SDS011;65814;51.134;16.980;2023-08-31T06:12:28;11.50;;;7.80;;
76848;SDS011;65814;51.134;16.980;2023-08-31T06:14:56;10.20;;;7.80;;
76848;SDS011;65814;51.134;16.980;2023-08-31T06:17:24;10.50;;;7.40;;
76848;SDS011;65814;51.134;16.980;2023-08-31T06:19:52;11.70;;;8.80;;
76848;SDS011;65814;51.134;16.980;2023-08-31T06:22:20;10.70;;;7.90;;
76848;SDS011;65814;51.134;16.980;2023-08-31T06:24:50;10.70;;;7.80;;
76848;SDS011;65814;51.134;16.980;2023-08-31T06:27:19;11.40;;;8.80;;
76848;SDS011;65814;51.134;16.980;2023-08-31T06:29:47;11.00;;;8.80;;
76848;SDS011;65814;51.134;16.980;2023-08-31T06:32:16;11.20;;;8.70;;
76848;SDS011;65814;51.134;16.980;2023-08-31T06:34:45;10.70;;;7.80;;
76848;SDS011;65814;51.134;16.980;2023-08-31T06:37:13;19.00;;;9.80;;
76848;SDS011;65814;51.134;16.980;2023-08-31T06:39:41;13.60;;;8.20;;
76848;SDS011;65814;51.134;16.980;2023-08-31T06:42:09;9.90;;;8.00;;
76848;SDS011;65814;51.134;16.980;2023-08-31T06:44:36;11.20;;;9.10;;
76848;SDS011;65814;51.134;16.980;2023-08-31T06:47:04;11.60;;;8.20;;
76848;SDS011;65814;51.134;16.980;2023-08-31T06:49:33;13.20;;;9.30;;
76848;SDS011;65814;51.134;16.980;2023-08-31T06:52:01;13.60;;;9.90;;
76848;SDS011;65814;51.134;16.980;2023-08-31T06:54:39;13.40;;;9.40;;
76848;SDS011;65814;51.134;16.980;2023-08-31T06:57:07;9.90;;;8.90;;
76848;SDS011;65814;51.134;16.980;2023-08-31T06:59:35;14.40;;;10.60;;
76848;SDS011;65814;51.134;16.980;2023-08-31T07:02:03;10.70;;;8.80;;
76848;SDS011;65814;51.134;16.980;2023-08-31T07:04:31;13.90;;;8.90;;
76848;SDS011;65814;51.134;16.980;2023-08-31T07:06:58;11.40;;;8.50;;
76848;SDS011;65814;51.134;16.980;2023-08-31T07:09:27;11.30;;;8.90;;
76848;SDS011;65814;51.134;16.980;2023-08-31T07:11:54;12.60;;;9.50;;
76848;SDS011;65814;51.134;16.980;2023-08-31T07:14:22;10.70;;;8.60;;
76848;SDS011;65814;51.134;16.980;2023-08-31T07:16:50;12.10;;;9.30;;
76848;SDS011;65814;51.134;16.980;2023-08-31T07:19:18;11.00;;;8.20;;
76848;SDS011;65814;51.134;16.980;2023-08-31T07:21:46;10.80;;;8.30;;
76848;SDS011;65814;51.134;16.980;2023-08-31T07:24:15;10.50;;;8.20;;
76848;SDS011;65814;51.134;16.980;2023-08-31T07:26:43;10.80;;;8.80;;
76848;SDS011;65814;51.134;16.980;2023-08-31T07:29:10;11.70;;;8.80;;
76848;SDS011;65814;51.134;16.980;2023-08-31T07:31:38;12.40;;;9.40;;
76848;SDS011;65814;51.134;16.980;2023-08-31T07:34:06;11.40;;;8.80;;
76848;SDS011;65814;51.134;16.980;2023-08-31T07:36:35;13.40;;;9.40;;
76848;SDS011;65814;51.134;16.980;2023-08-31T07:39:03;9.60;;;8.20;;
76848;SDS011;65814;51.134;16.980;2023-08-31T07:41:32;10.80;;;9.50;;
76848;SDS011;65814;51.134;16.980;2023-08-31T07:44:00;10.90;;;8.70;;
76848;SDS011;65814;51.134;16.980;2023-08-31T07:46:31;12.30;;;9.60;;
76848;SDS011;65814;51.134;16.980;2023-08-31T07:48:59;11.00;;;9.10;;
76848;SDS011;65814;51.134;16.980;2023-08-31T07:51:27;11.20;;;8.90;;
76848;SDS011;65814;51.134;16.980;2023-08-31T07:53:55;10.80;;;9.30;;
76848;SDS011;65814;51.134;16.980;2023-08-31T07:56:23;12.80;;;9.50;;
76848;SDS011;65814;51.134;16.980;2023-08-31T07:58:51;11.60;;;9.00;;
76848;SDS011;65814;51.134;16.980;2023-08-31T08:01:19;10.90;;;7.20;;
76848;SDS011;65814;51.134;16.980;2023-08-31T08:03:47;9.40;;;7.50;;
76848;SDS011;65814;51.134;16.980;2023-08-31T08:06:15;11.90;;;8.80;;
76848;SDS011;65814;51.134;16.980;2023-08-31T08:08:43;11.60;;;7.70;;
76848;SDS011;65814;51.134;16.980;2023-08-31T08:11:12;11.00;;;7.50;;
76848;SDS011;65814;51.134;16.980;2023-08-31T08:13:39;12.10;;;8.20;;
76848;SDS011;65814;51.134;16.980;2023-08-31T08:16:07;11.60;;;8.00;;
76848;SDS011;65814;51.134;16.980;2023-08-31T08:18:36;11.20;;;8.20;;
76848;SDS011;65814;51.134;16.980;2023-08-31T08:21:04;10.50;;;7.60;;
76848;SDS011;65814;51.134;16.980;2023-08-31T08:23:32;11.30;;;7.30;;
76848;SDS011;65814;51.134;16.980;2023-08-31T08:26:00;11.50;;;7.90;;
76848;SDS011;65814;51.134;16.980;2023-08-31T08:28:28;8.50;;;7.00;;
76848;SDS011;65814;51.134;16.980;2023-08-31T08:30:56;11.30;;;7.10;;
76848;SDS011;65814;51.134;16.980;2023-08-31T08:33:24;7.80;;;6.60;;
76848;SDS011;65814;51.134;16.980;2023-08-31T08:35:55;7.20;;;6.50;;
76848;SDS011;65814;51.134;16.980;2023-08-31T08:38:24;7.20;;;6.50;;
76848;SDS011;65814;51.134;16.980;2023-08-31T08:40:53;6.90;;;6.20;;
76848;SDS011;65814;51.134;16.980;2023-08-31T08:43:24;6.80;;;5.70;;
76848;SDS011;65814;51.134;16.980;2023-08-31T08:45:53;7.10;;;6.40;;
76848;SDS011;65814;51.134;16.980;2023-08-31T08:48:21;6.30;;;5.70;;
76848;SDS011;65814;51.134;16.980;2023-08-31T08:50:49;6.90;;;5.90;;
76848;SDS011;65814;51.134;16.980;2023-08-31T08:53:18;8.30;;;6.20;;
76848;SDS011;65814;51.134;16.980;2023-08-31T08:55:45;7.40;;;6.00;;
76848;SDS011;65814;51.134;16.980;2023-08-31T08:58:13;6.80;;;5.90;;
76848;SDS011;65814;51.134;16.980;2023-08-31T09:00:41;6.80;;;6.20;;
76848;SDS011;65814;51.134;16.980;2023-08-31T09:03:09;6.50;;;4.80;;
76848;SDS011;65814;51.134;16.980;2023-08-31T09:05:38;5.00;;;4.40;;
76848;SDS011;65814;51.134;16.980;2023-08-31T09:08:07;5.10;;;4.60;;
76848;SDS011;65814;51.134;16.980;2023-08-31T09:10:41;6.00;;;4.20;;
76848;SDS011;65814;51.134;16.980;2023-08-31T09:13:11;5.90;;;4.20;;
76848;SDS011;65814;51.134;16.980;2023-08-31T09:15:48;4.70;;;3.60;;
76848;SDS011;65814;51.134;16.980;2023-08-31T09:18:26;4.10;;;3.60;;
76848;SDS011;65814;51.134;16.980;2023-08-31T09:20:55;4.30;;;3.00;;
76848;SDS011;65814;51.134;16.980;2023-08-31T09:23:27;4.70;;;3.40;;
76848;SDS011;65814;51.134;16.980;2023-08-31T09:25:55;4.60;;;3.50;;
76848;SDS011;65814;51.134;16.980;2023-08-31T09:28:24;6.60;;;3.60;;
76848;SDS011;65814;51.134;16.980;2023-08-31T09:31:07;6.80;;;3.90;;
76848;SDS011;65814;51.134;16.980;2023-08-31T09:33:36;5.80;;;3.90;;
76848;SDS011;65814;51.134;16.980;2023-08-31T09:36:06;5.30;;;3.70;;
76848;SDS011;65814;51.134;16.980;2023-08-31T09:38:41;5.10;;;3.80;;
76848;SDS011;65814;51.134;16.980;2023-08-31T09:41:12;4.30;;;3.50;;
76848;SDS011;65814;51.134;16.980;2023-08-31T09:43:41;5.20;;;3.80;;
76848;SDS011;65814;51.134;16.980;2023-08-31T09:46:09;5.00;;;4.00;;
76848;SDS011;65814;51.134;16.980;2023-08-31T09:48:41;4.50;;;3.40;;
76848;SDS011;65814;51.134;16.980;2023-08-31T09:51:10;4.70;;;3.80;;
76848;SDS011;65814;51.134;16.980;2023-08-31T09:53:38;5.20;;;4.00;;
76848;SDS011;65814;51.134;16.980;2023-08-31T09:56:06;5.90;;;4.20;;
76848;SDS011;65814;51.134;16.980;2023-08-31T09:58:35;5.50;;;4.10;;
76848;SDS011;65814;51.134;16.980;2023-08-31T10:01:06;5.80;;;4.70;;
76848;SDS011;65814;51.134;16.980;2023-08-31T10:03:50;4.90;;;3.90;;
76848;SDS011;65814;51.134;16.980;2023-08-31T10:06:18;4.70;;;3.80;;
76848;SDS011;65814;51.134;16.980;2023-08-31T10:08:48;4.90;;;3.70;;
76848;SDS011;65814;51.134;16.980;2023-08-31T10:11:16;6.20;;;4.40;;
76848;SDS011;65814;51.134;16.980;2023-08-31T10:13:44;4.80;;;4.10;;
76848;SDS011;65814;51.134;16.980;2023-08-31T10:16:13;5.90;;;4.90;;
76848;SDS011;65814;51.134;16.980;2023-08-31T10:18:43;7.10;;;5.90;;
76848;SDS011;65814;51.134;16.980;2023-08-31T10:21:11;6.40;;;4.10;;
76848;SDS011;65814;51.134;16.980;2023-08-31T10:23:46;6.10;;;5.20;;
76848;SDS011;65814;51.134;16.980;2023-08-31T10:26:24;8.80;;;5.10;;
76848;SDS011;65814;51.134;16.980;2023-08-31T10:28:53;5.50;;;4.30;;
76848;SDS011;65814;51.134;16.980;2023-08-31T10:31:22;5.80;;;4.60;;
76848;SDS011;65814;51.134;16.980;2023-08-31T10:34:00;8.00;;;5.80;;
76848;SDS011;65814;51.134;16.980;2023-08-31T10:36:41;8.10;;;4.70;;
76848;SDS011;65814;51.134;16.980;2023-08-31T10:41:41;6.10;;;5.30;;
76848;SDS011;65814;51.134;16.980;2023-08-31T10:44:19;7.40;;;5.70;;
76848;SDS011;65814;51.134;16.980;2023-08-31T10:46:49;7.70;;;5.20;;
76848;SDS011;65814;51.134;16.980;2023-08-31T10:49:21;6.60;;;5.70;;
76848;SDS011;65814;51.134;16.980;2023-08-31T10:54:22;7.10;;;6.40;;
76848;SDS011;65814;51.134;16.980;2023-08-31T10:59:25;5.40;;;4.60;;
76848;SDS011;65814;51.134;16.980;2023-08-31T11:02:10;4.40;;;3.60;;
76848;SDS011;65814;51.134;16.980;2023-08-31T11:04:54;5.40;;;3.40;;
76848;SDS011;65814;51.134;16.980;2023-08-31T11:07:50;5.30;;;3.40;;
76848;SDS011;65814;51.134;16.980;2023-08-31T11:10:24;3.90;;;3.50;;
76848;SDS011;65814;51.134;16.980;2023-08-31T11:12:57;5.00;;;3.90;;
76848;SDS011;65814;51.134;16.980;2023-08-31T11:15:25;5.50;;;3.50;;
76848;SDS011;65814;51.134;16.980;2023-08-31T11:17:54;5.00;;;3.70;;
76848;SDS011;65814;51.134;16.980;2023-08-31T11:20:23;4.40;;;3.60;;
76848;SDS011;65814;51.134;16.980;2023-08-31T11:22:56;8.90;;;3.70;;
76848;SDS011;65814;51.134;16.980;2023-08-31T11:25:24;4.40;;;2.80;;
76848;SDS011;65814;51.134;16.980;2023-08-31T11:27:57;6.60;;;3.30;;
76848;SDS011;65814;51.134;16.980;2023-08-31T11:30:29;4.40;;;3.30;;
76848;SDS011;65814;51.134;16.980;2023-08-31T11:33:10;4.20;;;3.80;;
76848;SDS011;65814;51.134;16.980;2023-08-31T11:35:40;6.40;;;3.80;;
76848;SDS011;65814;51.134;16.980;2023-08-31T11:38:11;5.30;;;3.70;;
76848;SDS011;65814;51.134;16.980;2023-08-31T11:40:40;4.80;;;3.70;;
76848;SDS011;65814;51.134;16.980;2023-08-31T11:43:08;5.30;;;4.20;;
76848;SDS011;65814;51.134;16.980;2023-08-31T11:45:38;5.70;;;4.10;;
76848;SDS011;65814;51.134;16.980;2023-08-31T11:48:07;4.20;;;3.80;;
76848;SDS011;65814;51.134;16.980;2023-08-31T11:50:36;5.00;;;4.30;;
76848;SDS011;65814;51.134;16.980;2023-08-31T11:53:07;6.40;;;4.70;;
76848;SDS011;65814;51.134;16.980;2023-08-31T11:55:35;4.40;;;4.00;;
76848;SDS011;65814;51.134;16.980;2023-08-31T11:58:03;7.10;;;4.00;;
76848;SDS011;65814;51.134;16.980;2023-08-31T12:00:35;4.60;;;4.00;;
76848;SDS011;65814;51.134;16.980;2023-08-31T12:03:03;5.40;;;4.40;;
76848;SDS011;65814;51.134;16.980;2023-08-31T12:05:46;5.40;;;3.90;;
76848;SDS011;65814;51.134;16.980;2023-08-31T12:08:15;12.30;;;4.20;;
76848;SDS011;65814;51.134;16.980;2023-08-31T12:10:43;4.30;;;3.70;;
76848;SDS011;65814;51.134;16.980;2023-08-31T12:13:12;4.20;;;3.50;;
76848;SDS011;65814;51.134;16.980;2023-08-31T12:15:43;4.80;;;3.70;;
76848;SDS011;65814;51.134;16.980;2023-08-31T12:18:12;4.30;;;3.50;;
76848;SDS011;65814;51.134;16.980;2023-08-31T12:20:45;5.70;;;3.60;;
76848;SDS011;65814;51.134;16.980;2023-08-31T12:23:14;5.20;;;3.40;;
76848;SDS011;65814;51.134;16.980;2023-08-31T12:25:48;4.70;;;3.40;;
76848;SDS011;65814;51.134;16.980;2023-08-31T12:30:49;5.20;;;3.30;;
76848;SDS011;65814;51.134;16.980;2023-08-31T12:33:21;5.60;;;3.50;;
76848;SDS011;65814;51.134;16.980;2023-08-31T12:35:49;5.20;;;3.60;;
76848;SDS011;65814;51.134;16.980;2023-08-31T12:38:18;4.60;;;4.10;;
76848;SDS011;65814;51.134;16.980;2023-08-31T12:40:47;4.90;;;3.80;;
76848;SDS011;65814;51.134;16.980;2023-08-31T12:43:15;5.30;;;4.00;;
76848;SDS011;65814;51.134;16.980;2023-08-31T12:45:44;4.60;;;3.50;;
76848;SDS011;65814;51.134;16.980;2023-08-31T12:48:12;5.40;;;3.60;;
76848;SDS011;65814;51.134;16.980;2023-08-31T12:50:41;7.10;;;3.60;;
76848;SDS011;65814;51.134;16.980;2023-08-31T12:53:09;5.50;;;4.10;;
76848;SDS011;65814;51.134;16.980;2023-08-31T12:55:37;4.90;;;3.60;;
76848;SDS011;65814;51.134;16.980;2023-08-31T12:58:05;7.50;;;4.80;;
76848;SDS011;65814;51.134;16.980;2023-08-31T13:00:33;6.20;;;4.00;;
76848;SDS011;65814;51.134;16.980;2023-08-31T13:03:01;5.70;;;3.40;;
76848;SDS011;65814;51.134;16.980;2023-08-31T13:05:31;6.20;;;3.40;;
76848;SDS011;65814;51.134;16.980;2023-08-31T13:07:58;7.60;;;3.70;;
76848;SDS011;65814;51.134;16.980;2023-08-31T13:10:27;4.50;;;3.40;;
76848;SDS011;65814;51.134;16.980;2023-08-31T13:12:54;4.70;;;3.30;;
76848;SDS011;65814;51.134;16.980;2023-08-31T13:15:22;4.30;;;3.50;;
76848;SDS011;65814;51.134;16.980;2023-08-31T13:17:50;5.30;;;3.40;;
76848;SDS011;65814;51.134;16.980;2023-08-31T13:20:18;7.40;;;3.40;;
76848;SDS011;65814;51.134;16.980;2023-08-31T13:22:46;7.10;;;2.70;;
76848;SDS011;65814;51.134;16.980;2023-08-31T13:25:14;3.50;;;2.60;;
76848;SDS011;65814;51.134;16.980;2023-08-31T13:27:42;5.60;;;3.00;;
76848;SDS011;65814;51.134;16.980;2023-08-31T13:30:12;3.90;;;3.50;;
76848;SDS011;65814;51.134;16.980;2023-08-31T13:32:40;4.20;;;3.00;;
76848;SDS011;65814;51.134;16.980;2023-08-31T13:35:09;3.60;;;2.70;;
76848;SDS011;65814;51.134;16.980;2023-08-31T13:37:37;4.40;;;2.70;;
76848;SDS011;65814;51.134;16.980;2023-08-31T13:40:05;4.80;;;2.90;;
76848;SDS011;65814;51.134;16.980;2023-08-31T13:42:35;5.70;;;2.80;;
76848;SDS011;65814;51.134;16.980;2023-08-31T13:45:07;4.90;;;3.00;;
76848;SDS011;65814;51.134;16.980;2023-08-31T13:47:35;4.20;;;2.90;;
76848;SDS011;65814;51.134;16.980;2023-08-31T13:50:03;5.80;;;2.70;;
76848;SDS011;65814;51.134;16.980;2023-08-31T13:52:31;4.40;;;2.60;;
76848;SDS011;65814;51.134;16.980;2023-08-31T13:54:59;4.20;;;2.60;;
76848;SDS011;65814;51.134;16.980;2023-08-31T13:57:27;5.80;;;3.50;;
76848;SDS011;65814;51.134;16.980;2023-08-31T13:59:55;6.20;;;3.30;;
76848;SDS011;65814;51.134;16.980;2023-08-31T14:02:23;4.30;;;2.90;;
76848;SDS011;65814;51.134;16.980;2023-08-31T14:04:52;4.00;;;2.90;;
76848;SDS011;65814;51.134;16.980;2023-08-31T14:07:21;4.50;;;2.70;;
76848;SDS011;65814;51.134;16.980;2023-08-31T14:09:49;4.30;;;3.20;;
76848;SDS011;65814;51.134;16.980;2023-08-31T14:12:18;5.80;;;3.40;;
76848;SDS011;65814;51.134;16.980;2023-08-31T14:14:46;3.60;;;2.70;;
76848;SDS011;65814;51.134;16.980;2023-08-31T14:17:14;7.40;;;3.10;;
76848;SDS011;65814;51.134;16.980;2023-08-31T14:19:43;6.00;;;3.20;;
76848;SDS011;65814;51.134;16.980;2023-08-31T14:22:11;5.90;;;2.60;;
76848;SDS011;65814;51.134;16.980;2023-08-31T14:24:39;5.20;;;2.70;;
76848;SDS011;65814;51.134;16.980;2023-08-31T14:27:08;3.80;;;2.60;;
76848;SDS011;65814;51.134;16.980;2023-08-31T14:29:36;4.40;;;2.50;;
76848;SDS011;65814;51.134;16.980;2023-08-31T14:32:04;3.30;;;2.20;;
76848;SDS011;65814;51.134;16.980;2023-08-31T14:34:33;4.50;;;2.60;;
76848;SDS011;65814;51.134;16.980;2023-08-31T14:37:01;4.00;;;2.70;;
76848;SDS011;65814;51.134;16.980;2023-08-31T14:39:29;8.20;;;4.00;;
76848;SDS011;65814;51.134;16.980;2023-08-31T14:41:58;10.00;;;3.80;;
76848;SDS011;65814;51.134;16.980;2023-08-31T14:44:26;4.20;;;3.00;;
76848;SDS011;65814;51.134;16.980;2023-08-31T14:46:54;4.00;;;2.60;;
76848;SDS011;65814;51.134;16.980;2023-08-31T14:49:22;3.00;;;2.70;;
76848;SDS011;65814;51.134;16.980;2023-08-31T14:51:52;3.90;;;2.30;;
76848;SDS011;65814;51.134;16.980;2023-08-31T14:54:20;4.00;;;2.50;;
76848;SDS011;65814;51.134;16.980;2023-08-31T14:56:50;4.00;;;2.70;;